createdAt,value
2024-01-22T00:00:35.595Z,8.57
2024-01-22T00:03:03.439Z,9.87
2024-01-22T00:05:31.277Z,8.67
2024-01-22T00:07:59.102Z,7.90
2024-01-22T00:10:26.486Z,9.37
2024-01-22T00:12:53.965Z,9.40
2024-01-22T00:15:21.614Z,9.20
2024-01-22T00:17:48.996Z,9.07
2024-01-22T00:20:16.893Z,10.30
2024-01-22T00:22:44.366Z,10.97
2024-01-22T00:25:11.918Z,8.17
2024-01-22T00:27:38.977Z,9.47
2024-01-22T00:30:07.499Z,9.63
2024-01-22T00:32:35.046Z,8.07
2024-01-22T00:35:02.668Z,9.20
2024-01-22T00:37:30.469Z,8.20
2024-01-22T00:39:59.629Z,7.50
2024-01-22T00:42:27.105Z,9.23
2024-01-22T00:44:54.710Z,8.37
2024-01-22T00:47:22.216Z,7.57
2024-01-22T00:49:49.745Z,7.40
2024-01-22T00:52:17.213Z,7.67
2024-01-22T00:54:44.707Z,8.33
2024-01-22T00:57:12.447Z,8.47
2024-01-22T00:59:40.173Z,6.83
2024-01-22T01:02:07.807Z,8.47
2024-01-22T01:04:35.320Z,7.10
2024-01-22T01:07:02.758Z,8.30
2024-01-22T01:09:30.188Z,7.17
2024-01-22T01:11:57.833Z,6.70
2024-01-22T01:14:26.382Z,6.67
2024-01-22T01:16:53.996Z,6.27
2024-01-22T01:19:21.705Z,8.07
2024-01-22T01:21:49.458Z,7.27
2024-01-22T01:24:17.213Z,8.50
2024-01-22T01:26:45.474Z,6.63
2024-01-22T01:29:13.676Z,6.40
2024-01-22T01:31:41.394Z,6.97
2024-01-22T01:34:09.267Z,8.07
2024-01-22T01:36:37.055Z,7.10
2024-01-22T01:39:05.105Z,7.10
2024-01-22T01:41:32.990Z,7.70
2024-01-22T01:44:00.504Z,6.43
2024-01-22T01:46:28.243Z,8.13
2024-01-22T01:48:56.774Z,7.60
2024-01-22T01:51:37.797Z,6.87
2024-01-22T01:54:09.822Z,6.63
2024-01-22T01:56:37.605Z,6.30
2024-01-22T01:59:05.288Z,7.60
2024-01-22T02:01:33.001Z,7.00
2024-01-22T02:04:00.374Z,7.73
2024-01-22T02:06:28.097Z,7.07
2024-01-22T02:08:55.588Z,7.73
2024-01-22T02:11:23.959Z,7.03
2024-01-22T02:13:51.556Z,6.77
2024-01-22T02:16:19.070Z,7.97
2024-01-22T02:18:47.080Z,7.53
2024-01-22T02:21:15.565Z,7.23
2024-01-22T02:23:43.231Z,7.97
2024-01-22T02:26:10.953Z,8.50
2024-01-22T02:28:38.567Z,7.43
2024-01-22T02:31:08.477Z,6.60
2024-01-22T02:33:36.460Z,8.03
2024-01-22T02:36:04.305Z,7.60
2024-01-22T02:38:31.679Z,7.00
2024-01-22T02:40:59.264Z,8.00
2024-01-22T02:43:26.766Z,7.33
2024-01-22T02:45:54.528Z,8.23
2024-01-22T02:48:22.245Z,6.50
2024-01-22T02:50:50.193Z,8.83
2024-01-22T02:53:17.957Z,7.03
2024-01-22T02:55:45.700Z,8.17
2024-01-22T02:58:13.390Z,7.07
2024-01-22T03:00:41.401Z,7.23
2024-01-22T03:03:10.021Z,6.47
2024-01-22T03:05:37.666Z,7.30
2024-01-22T03:08:05.563Z,8.87
2024-01-22T03:10:32.700Z,7.33
2024-01-22T03:13:00.219Z,8.80
2024-01-22T03:15:27.836Z,7.67
2024-01-22T03:17:55.196Z,8.23
2024-01-22T03:20:22.699Z,8.33
2024-01-22T03:22:49.898Z,8.23
2024-01-22T03:25:17.684Z,8.17
2024-01-22T03:27:45.243Z,6.73
2024-01-22T03:30:14.801Z,7.50
2024-01-22T03:32:42.624Z,7.60
2024-01-22T03:35:10.316Z,7.80
2024-01-22T03:37:37.860Z,8.27
2024-01-22T03:40:05.739Z,8.00
2024-01-22T03:42:33.863Z,7.83
2024-01-22T03:45:01.229Z,8.57
2024-01-22T03:47:28.877Z,8.23
2024-01-22T03:49:56.659Z,8.77
2024-01-22T03:52:24.075Z,7.50
2024-01-22T03:54:51.804Z,8.53
2024-01-22T03:57:19.922Z,8.30
2024-01-22T03:59:48.359Z,7.80
2024-01-22T04:02:15.988Z,10.20
2024-01-22T04:04:43.991Z,8.83
2024-01-22T04:07:11.579Z,9.30
2024-01-22T04:09:39.643Z,9.30
2024-01-22T04:12:07.428Z,8.73
2024-01-22T04:14:35.266Z,9.13
2024-01-22T04:17:03.020Z,8.83
2024-01-22T04:19:30.783Z,7.80
2024-01-22T04:21:58.302Z,8.47
2024-01-22T04:24:26.026Z,7.83
2024-01-22T04:26:53.528Z,8.90
2024-01-22T04:29:21.156Z,7.90
2024-01-22T04:31:48.718Z,9.27
2024-01-22T04:34:16.931Z,10.03
2024-01-22T04:37:06.070Z,9.63
2024-01-22T04:39:33.751Z,8.23
2024-01-22T04:42:01.469Z,8.83
2024-01-22T04:44:30.367Z,8.43
2024-01-22T04:46:58.598Z,7.00
2024-01-22T04:49:26.569Z,7.60
2024-01-22T04:51:54.176Z,8.87
2024-01-22T04:54:21.927Z,8.30
2024-01-22T04:56:50.018Z,9.70
2024-01-22T04:59:17.629Z,9.73
2024-01-22T05:01:45.515Z,10.07
2024-01-22T05:04:13.063Z,10.70
2024-01-22T05:06:41.007Z,11.10
2024-01-22T05:09:09.101Z,9.30
2024-01-22T05:11:37.173Z,9.20
2024-01-22T05:14:04.714Z,9.33
2024-01-22T05:16:32.156Z,9.17
2024-01-22T05:18:59.417Z,8.47
2024-01-22T05:21:27.241Z,8.07
2024-01-22T05:24:19.796Z,7.10
2024-01-22T05:26:47.991Z,8.10
2024-01-22T05:29:15.459Z,8.10
2024-01-22T05:31:42.685Z,9.47
2024-01-22T05:34:10.639Z,7.93
2024-01-22T05:36:39.258Z,8.00
2024-01-22T05:39:06.415Z,9.47
2024-01-22T05:41:34.174Z,9.43
2024-01-22T05:44:01.624Z,8.87
2024-01-22T05:46:29.465Z,8.83
2024-01-22T05:48:56.998Z,8.93
2024-01-22T05:51:24.754Z,9.87
2024-01-22T05:53:52.547Z,10.53
2024-01-22T05:56:24.729Z,9.30
2024-01-22T05:58:52.269Z,9.83
2024-01-22T06:01:21.130Z,6.83
2024-01-22T06:03:48.817Z,7.70
2024-01-22T06:06:16.787Z,8.07
2024-01-22T06:08:49.135Z,8.37
2024-01-22T06:11:20.735Z,6.43
2024-01-22T06:13:57.501Z,7.50
2024-01-22T06:16:29.121Z,7.80
2024-01-22T06:18:56.838Z,9.37
2024-01-22T06:21:24.641Z,8.50
2024-01-22T06:23:52.252Z,8.43
2024-01-22T06:26:21.078Z,7.83
2024-01-22T06:28:49.534Z,7.17
2024-01-22T06:31:17.539Z,9.23
2024-01-22T06:33:45.235Z,8.83
2024-01-22T06:36:13.007Z,8.47
2024-01-22T06:38:40.547Z,7.80
2024-01-22T06:41:12.925Z,7.40
2024-01-22T06:43:41.088Z,6.90
2024-01-22T06:46:08.888Z,7.90
2024-01-22T06:48:36.562Z,7.90
2024-01-22T06:51:03.994Z,6.77
2024-01-22T06:53:57.390Z,8.07
2024-01-22T06:56:24.935Z,8.30
2024-01-22T06:58:52.437Z,7.60
2024-01-22T07:01:20.336Z,6.87
2024-01-22T07:03:47.710Z,8.20
2024-01-22T07:06:15.254Z,9.13
2024-01-22T07:08:42.769Z,7.30
2024-01-22T07:11:10.213Z,8.87
2024-01-22T07:13:37.642Z,7.27
2024-01-22T07:16:05.237Z,8.47
2024-01-22T07:18:33.024Z,9.23
2024-01-22T07:21:00.740Z,8.03
2024-01-22T07:23:28.300Z,8.13
2024-01-22T07:25:56.704Z,7.90
2024-01-22T07:28:24.263Z,7.27
2024-01-22T07:30:51.671Z,8.10
2024-01-22T07:33:19.352Z,7.17
2024-01-22T07:35:47.756Z,7.40
2024-01-22T07:38:15.232Z,6.90
2024-01-22T07:40:42.631Z,7.27
2024-01-22T07:43:11.256Z,7.93
2024-01-22T07:45:38.714Z,8.00
2024-01-22T07:48:06.298Z,6.87
2024-01-22T07:50:33.879Z,8.90
2024-01-22T07:53:01.857Z,6.83
2024-01-22T07:55:29.345Z,7.87
2024-01-22T07:57:56.855Z,7.20
2024-01-22T08:00:24.043Z,6.30
2024-01-22T08:02:51.717Z,6.10
2024-01-22T08:05:19.467Z,6.47
2024-01-22T08:07:47.206Z,7.23
2024-01-22T08:10:15.099Z,7.67
2024-01-22T08:12:42.648Z,8.43
2024-01-22T08:15:16.305Z,6.70
2024-01-22T08:17:46.570Z,8.03
2024-01-22T08:20:15.013Z,8.57
2024-01-22T08:22:44.933Z,7.97
2024-01-22T08:25:19.160Z,8.40
2024-01-22T08:27:46.869Z,7.60
2024-01-22T08:30:14.769Z,8.83
2024-01-22T08:32:42.399Z,7.70
2024-01-22T08:35:11.768Z,7.47
2024-01-22T08:37:41.027Z,7.63
2024-01-22T08:40:08.848Z,7.83
2024-01-22T08:42:36.275Z,8.53
2024-01-22T08:45:03.699Z,8.03
2024-01-22T08:47:31.221Z,8.27
2024-01-22T08:49:58.779Z,7.83
2024-01-22T08:52:26.215Z,7.63
2024-01-22T08:54:53.696Z,9.23
2024-01-22T08:57:21.233Z,8.33
2024-01-22T08:59:50.212Z,8.20
2024-01-22T09:02:17.737Z,7.37
2024-01-22T09:04:46.643Z,7.57
2024-01-22T09:07:15.933Z,7.47
2024-01-22T09:09:43.979Z,7.50
2024-01-22T09:12:11.439Z,7.53
2024-01-22T09:14:39.328Z,8.00
2024-01-22T09:17:06.831Z,7.33
2024-01-22T09:19:34.431Z,8.07
2024-01-22T09:22:02.012Z,6.97
2024-01-22T09:24:29.500Z,7.07
2024-01-22T09:26:57.118Z,7.20
2024-01-22T09:29:24.725Z,8.07
2024-01-22T09:31:52.252Z,6.67
2024-01-22T09:34:20.030Z,7.77
2024-01-22T09:36:47.701Z,8.40
2024-01-22T09:39:15.299Z,7.10
2024-01-22T09:41:42.882Z,7.53
2024-01-22T09:44:10.356Z,7.97
2024-01-22T09:46:37.784Z,6.63
2024-01-22T09:49:06.342Z,7.20
2024-01-22T09:51:36.865Z,7.50
2024-01-22T09:54:11.014Z,6.80
2024-01-22T09:56:39.737Z,7.50
2024-01-22T09:59:21.172Z,7.60
2024-01-22T10:01:52.147Z,6.97
2024-01-22T10:04:20.386Z,6.90
2024-01-22T10:06:49.905Z,6.97
2024-01-22T10:09:18.675Z,7.37
2024-01-22T10:11:47.166Z,7.83
2024-01-22T10:14:15.123Z,7.50
2024-01-22T10:16:42.618Z,8.10
2024-01-22T10:19:11.718Z,7.80
2024-01-22T10:21:40.279Z,7.43
2024-01-22T10:24:08.949Z,8.53
2024-01-22T10:26:37.514Z,7.93
2024-01-22T10:29:19.093Z,7.27
2024-01-22T10:32:00.631Z,7.23
2024-01-22T10:34:30.891Z,7.77
2024-01-22T10:37:08.998Z,8.03
2024-01-22T10:39:36.949Z,7.53
2024-01-22T10:42:11.320Z,7.63
2024-01-22T10:44:39.974Z,8.00
2024-01-22T10:47:07.924Z,7.40
2024-01-22T10:49:36.488Z,7.27
2024-01-22T10:52:06.333Z,8.77
2024-01-22T10:54:35.634Z,7.53
2024-01-22T10:57:10.551Z,7.00
2024-01-22T10:59:42.903Z,7.23
2024-01-22T11:02:32.876Z,8.07
2024-01-22T11:05:13.215Z,7.83
2024-01-22T11:07:42.494Z,8.10
2024-01-22T11:10:12.620Z,7.70
2024-01-22T11:12:47.396Z,8.83
2024-01-22T11:15:15.596Z,8.17
2024-01-22T11:17:43.598Z,8.90
2024-01-22T11:20:21.495Z,7.97
2024-01-22T11:23:10.927Z,7.90
2024-01-22T11:25:38.481Z,8.53
2024-01-22T11:28:06.327Z,6.67
2024-01-22T11:30:34.743Z,7.63
2024-01-22T11:33:02.753Z,6.93
2024-01-22T11:35:38.458Z,6.90
2024-01-22T11:38:06.921Z,6.53
2024-01-22T11:40:51.798Z,8.03
2024-01-22T11:43:20.133Z,6.73
2024-01-22T11:45:49.702Z,7.17
2024-01-22T11:48:19.048Z,6.63
2024-01-22T11:51:00.793Z,6.23
2024-01-22T11:53:31.510Z,5.93
2024-01-22T11:56:03.122Z,7.50
2024-01-22T11:58:31.300Z,7.40
2024-01-22T12:00:59.684Z,6.70
2024-01-22T12:03:27.306Z,6.03
2024-01-22T12:06:07.925Z,7.80
2024-01-22T12:08:36.630Z,7.27
2024-01-22T12:11:17.265Z,5.53
2024-01-22T12:13:44.943Z,6.20
2024-01-22T12:16:16.704Z,5.30
2024-01-22T12:18:44.806Z,5.57
2024-01-22T12:21:14.254Z,5.53
2024-01-22T12:23:42.137Z,6.10
2024-01-22T12:26:14.257Z,5.80
2024-01-22T12:28:41.896Z,5.70
2024-01-22T12:31:10.088Z,4.40
2024-01-22T12:33:38.183Z,5.10
2024-01-22T12:36:08.125Z,5.57
2024-01-22T12:38:36.987Z,5.20
2024-01-22T12:41:10.013Z,5.10
2024-01-22T12:43:39.757Z,5.63
2024-01-22T12:46:08.498Z,5.00
2024-01-22T12:48:36.906Z,5.80
2024-01-22T12:51:07.576Z,5.40
2024-01-22T12:53:35.198Z,5.00
2024-01-22T12:56:04.755Z,4.77
2024-01-22T12:58:32.751Z,5.00
2024-01-22T13:01:00.356Z,4.77
2024-01-22T13:03:27.946Z,6.00
2024-01-22T13:05:55.787Z,5.40
2024-01-22T13:08:23.596Z,5.53
2024-01-22T13:10:51.107Z,6.27
2024-01-22T13:13:20.164Z,5.67
2024-01-22T13:15:57.656Z,6.83
2024-01-22T13:18:36.284Z,6.60
2024-01-22T13:21:05.256Z,5.87
2024-01-22T13:23:33.395Z,6.93
2024-01-22T13:26:02.920Z,6.00
2024-01-22T13:28:31.667Z,5.90
2024-01-22T13:30:59.737Z,6.27
2024-01-22T13:33:27.808Z,6.70
2024-01-22T13:35:55.720Z,6.20
2024-01-22T13:38:23.216Z,6.73
2024-01-22T13:40:50.708Z,6.07
2024-01-22T13:43:18.277Z,6.00
2024-01-22T13:45:45.828Z,6.63
2024-01-22T13:48:14.508Z,6.03
2024-01-22T13:50:43.324Z,5.97
2024-01-22T13:53:13.973Z,5.90
2024-01-22T13:55:41.605Z,5.27
2024-01-22T13:58:10.593Z,5.93
2024-01-22T14:00:38.918Z,5.77
2024-01-22T14:03:08.256Z,5.90
2024-01-22T14:05:35.932Z,6.00
2024-01-22T14:08:04.101Z,5.40
2024-01-22T14:10:31.882Z,6.77
2024-01-22T14:12:59.421Z,5.70
2024-01-22T14:15:27.837Z,5.57
2024-01-22T14:17:56.160Z,6.03
2024-01-22T14:20:24.659Z,5.93
2024-01-22T14:22:52.704Z,6.47
2024-01-22T14:25:20.759Z,5.97
2024-01-22T14:27:50.410Z,6.47
2024-01-22T14:30:18.157Z,5.27
2024-01-22T14:32:46.186Z,5.80
2024-01-22T14:35:14.553Z,6.43
2024-01-22T14:37:42.217Z,5.43
2024-01-22T14:40:10.562Z,6.47
2024-01-22T14:42:38.142Z,5.63
2024-01-22T14:45:06.787Z,5.83
2024-01-22T14:47:34.478Z,5.80
2024-01-22T14:50:02.215Z,5.93
2024-01-22T14:52:30.682Z,6.33
2024-01-22T14:55:01.193Z,5.60
2024-01-22T14:57:29.903Z,4.87
2024-01-22T14:59:57.473Z,5.70
2024-01-22T15:02:25.732Z,5.97
2024-01-22T15:04:53.204Z,5.53
2024-01-22T15:07:20.892Z,5.70
2024-01-22T15:09:49.831Z,5.10
2024-01-22T15:12:17.506Z,5.83
2024-01-22T15:14:51.297Z,4.90
2024-01-22T15:17:21.605Z,5.67
2024-01-22T15:19:49.269Z,5.30
2024-01-22T15:22:17.260Z,5.77
2024-01-22T15:24:44.822Z,5.50
2024-01-22T15:27:12.614Z,6.57
2024-01-22T15:29:40.327Z,6.60
2024-01-22T15:32:08.580Z,6.00
2024-01-22T15:34:36.471Z,6.23
2024-01-22T15:37:05.593Z,4.50
2024-01-22T15:39:36.345Z,6.47
2024-01-22T15:42:04.076Z,5.73
2024-01-22T15:44:31.718Z,5.70
2024-01-22T15:46:59.409Z,5.70
2024-01-22T15:49:29.758Z,4.93
2024-01-22T15:51:58.014Z,5.63
2024-01-22T15:54:25.698Z,5.37
2024-01-22T15:56:53.251Z,5.80
2024-01-22T15:59:21.552Z,6.97
2024-01-22T16:01:54.387Z,5.63
2024-01-22T16:04:21.940Z,5.10
2024-01-22T16:06:54.181Z,5.87
2024-01-22T16:09:33.998Z,5.67
2024-01-22T16:12:01.851Z,6.27
2024-01-22T16:14:48.150Z,5.80
2024-01-22T16:17:16.279Z,5.33
2024-01-22T16:19:44.252Z,5.27
2024-01-22T16:22:12.114Z,6.43
2024-01-22T16:24:39.751Z,5.10
2024-01-22T16:27:36.404Z,5.90
2024-01-22T16:30:04.511Z,5.60
2024-01-22T16:32:32.175Z,4.97
2024-01-22T16:34:59.756Z,5.00
2024-01-22T16:37:27.980Z,5.67
2024-01-22T16:39:58.927Z,5.47
2024-01-22T16:42:26.623Z,5.80
2024-01-22T16:44:54.159Z,5.87
2024-01-22T16:47:23.687Z,5.57
2024-01-22T16:49:51.417Z,5.53
2024-01-22T16:52:18.928Z,5.50
2024-01-22T16:54:46.364Z,6.47
2024-01-22T16:57:14.130Z,5.30
2024-01-22T16:59:42.048Z,5.83
2024-01-22T17:02:09.824Z,7.13
2024-01-22T17:04:37.376Z,6.87
2024-01-22T17:07:05.273Z,5.90
2024-01-22T17:09:33.041Z,7.20
2024-01-22T17:12:02.601Z,6.90
2024-01-22T17:14:31.817Z,7.03
2024-01-22T17:16:59.611Z,4.60
2024-01-22T17:19:27.325Z,6.70
2024-01-22T17:21:57.286Z,6.70
2024-01-22T17:24:24.793Z,7.10
2024-01-22T17:26:52.426Z,6.80
2024-01-22T17:29:20.198Z,7.40
2024-01-22T17:31:47.867Z,7.63
2024-01-22T17:34:15.685Z,7.40
2024-01-22T17:36:44.042Z,7.73
2024-01-22T17:39:13.620Z,8.80
2024-01-22T17:41:41.432Z,6.60
2024-01-22T17:44:12.558Z,7.80
2024-01-22T17:46:42.845Z,6.50
2024-01-22T17:49:10.480Z,7.63
2024-01-22T17:51:37.968Z,8.07
2024-01-22T17:54:05.573Z,8.73
2024-01-22T17:56:35.925Z,8.83
2024-01-22T17:59:03.433Z,7.93
2024-01-22T18:01:30.907Z,7.60
2024-01-22T18:04:00.045Z,6.53
2024-01-22T18:06:28.243Z,6.87
2024-01-22T18:08:58.409Z,7.53
2024-01-22T18:11:27.455Z,8.13
2024-01-22T18:13:54.992Z,7.63
2024-01-22T18:16:22.585Z,8.30
2024-01-22T18:18:50.167Z,7.27
2024-01-22T18:21:17.699Z,7.23
2024-01-22T18:23:45.177Z,7.63
2024-01-22T18:26:12.982Z,9.20
2024-01-22T18:28:41.213Z,8.27
2024-01-22T18:31:08.920Z,7.70
2024-01-22T18:33:38.167Z,7.87
2024-01-22T18:36:07.268Z,8.27
2024-01-22T18:38:34.707Z,8.77
2024-01-22T18:41:02.251Z,8.00
2024-01-22T18:43:30.426Z,9.00
2024-01-22T18:46:01.487Z,8.80
2024-01-22T18:48:34.943Z,9.30
2024-01-22T18:51:02.931Z,8.20
2024-01-22T18:53:30.936Z,9.10
2024-01-22T18:55:59.380Z,8.40
2024-01-22T18:58:27.338Z,9.37
2024-01-22T19:00:58.129Z,10.73
2024-01-22T19:03:27.866Z,8.07
2024-01-22T19:06:01.366Z,9.83
2024-01-22T19:08:30.220Z,9.40
2024-01-22T19:10:58.738Z,9.10
2024-01-22T19:13:29.589Z,8.47
2024-01-22T19:15:58.037Z,8.30
2024-01-22T19:18:26.590Z,8.83
2024-01-22T19:20:55.356Z,9.43
2024-01-22T19:23:23.771Z,10.43
2024-01-22T19:25:52.013Z,9.77
2024-01-22T19:28:19.877Z,8.47
2024-01-22T19:30:50.474Z,8.73
2024-01-22T19:33:19.499Z,9.37
2024-01-22T19:35:47.308Z,8.50
2024-01-22T19:38:15.339Z,8.60
2024-01-22T19:40:43.220Z,9.37
2024-01-22T19:43:11.565Z,9.33
2024-01-22T19:45:39.826Z,9.47
2024-01-22T19:48:20.258Z,8.50
2024-01-22T19:50:49.008Z,9.17
2024-01-22T19:53:17.316Z,9.80
2024-01-22T19:55:45.629Z,10.03
2024-01-22T19:58:13.469Z,10.50
2024-01-22T20:00:41.805Z,7.73
2024-01-22T20:03:10.415Z,9.60
2024-01-22T20:05:38.790Z,8.73
2024-01-22T20:08:08.210Z,8.77
2024-01-22T20:10:36.285Z,10.00
2024-01-22T20:13:04.535Z,9.80
2024-01-22T20:15:32.711Z,8.63
2024-01-22T20:18:00.825Z,10.33
2024-01-22T20:20:29.052Z,9.73
2024-01-22T20:23:00.529Z,9.80
2024-01-22T20:25:29.229Z,9.57
2024-01-22T20:27:57.531Z,9.90
2024-01-22T20:30:26.066Z,8.73
2024-01-22T20:32:54.783Z,9.33
2024-01-22T20:35:47.322Z,9.13
2024-01-22T20:38:30.405Z,9.53
2024-01-22T20:44:41.691Z,9.57
2024-01-22T20:47:30.968Z,9.53
2024-01-22T20:49:59.335Z,10.37
2024-01-22T20:52:27.676Z,9.27
2024-01-22T20:54:55.679Z,9.83
2024-01-22T20:57:24.121Z,10.00
2024-01-22T20:59:52.152Z,8.93
2024-01-22T21:02:20.384Z,9.87
2024-01-22T21:04:48.049Z,9.20
2024-01-22T21:07:20.524Z,11.10
2024-01-22T21:10:14.463Z,10.60
2024-01-22T21:12:42.462Z,9.50
2024-01-22T21:15:10.276Z,9.93
2024-01-22T21:17:38.346Z,9.30
2024-01-22T21:20:06.771Z,10.23
2024-01-22T21:22:34.301Z,9.17
2024-01-22T21:25:02.225Z,9.33
2024-01-22T21:27:29.874Z,9.83
2024-01-22T21:29:57.637Z,9.90
2024-01-22T21:32:25.402Z,9.67
2024-01-22T21:34:53.004Z,10.40
2024-01-22T21:37:22.716Z,10.00
2024-01-22T21:39:50.254Z,10.37
2024-01-22T21:42:19.993Z,10.37
2024-01-22T21:44:48.498Z,8.87
2024-01-22T21:47:16.462Z,9.73
2024-01-22T21:49:44.367Z,9.43
2024-01-22T21:52:13.342Z,10.20
2024-01-22T21:54:41.158Z,10.30
2024-01-22T21:57:09.013Z,9.90
2024-01-22T21:59:36.728Z,9.33
2024-01-22T22:02:05.478Z,9.27
2024-01-22T22:04:33.727Z,9.70
2024-01-22T22:07:01.428Z,9.23
2024-01-22T22:09:29.157Z,9.20
2024-01-22T22:12:22.406Z,10.23
2024-01-22T22:14:50.236Z,9.40
2024-01-22T22:17:17.961Z,10.33
2024-01-22T22:19:46.045Z,10.40
2024-01-22T22:22:14.424Z,10.40
2024-01-22T22:24:43.209Z,9.60
2024-01-22T22:27:10.896Z,10.33
2024-01-22T22:29:38.506Z,10.43
2024-01-22T22:32:06.393Z,9.37
2024-01-22T22:34:40.038Z,10.03
2024-01-22T22:37:07.670Z,11.77
2024-01-22T22:39:35.551Z,11.57
2024-01-22T22:42:03.237Z,11.20
2024-01-22T22:44:32.714Z,10.93
2024-01-22T22:47:00.205Z,10.27
2024-01-22T22:49:30.711Z,10.00
2024-01-22T22:52:00.747Z,11.03
2024-01-22T22:54:31.008Z,11.07
2024-01-22T22:57:01.805Z,11.10
2024-01-22T22:59:32.222Z,10.40
2024-01-22T23:02:00.494Z,11.67
2024-01-22T23:04:30.571Z,11.13
2024-01-22T23:06:58.882Z,11.00
2024-01-22T23:09:26.697Z,10.23
2024-01-22T23:11:59.348Z,10.87
2024-01-22T23:14:28.441Z,10.67
2024-01-22T23:16:56.175Z,10.93
2024-01-22T23:19:23.904Z,11.00
2024-01-22T23:21:53.931Z,10.97
2024-01-22T23:24:24.436Z,10.80
2024-01-22T23:26:52.326Z,10.23
2024-01-22T23:29:19.998Z,11.33
2024-01-22T23:31:50.038Z,11.13
2024-01-22T23:34:19.023Z,9.63
2024-01-22T23:36:46.970Z,12.13
2024-01-22T23:39:17.650Z,11.93
2024-01-22T23:41:45.419Z,11.87
2024-01-22T23:44:12.924Z,10.63
2024-01-22T23:46:46.258Z,11.13
2024-01-22T23:49:17.452Z,10.70
2024-01-22T23:51:45.240Z,10.17
2024-01-22T23:54:12.783Z,9.87
2024-01-22T23:56:40.761Z,10.73
2024-01-22T23:59:08.427Z,11.17
